Time;durP1;ratioP1;P1;durP2;ratioP2;P2;SDS_P1;SDS_P2;PMS_P1;PMS_P2;Temp;Humidity;BMP_temperature;BMP_pressure;BME280_temperature;BME280_humidity;BME280_pressure;Samples;Min_cycle;Max_cycle;Signal;HPM_P1;HPM_P2
2021/06/26 00:00:20;;;;;;;15.47;10.83;;;;;;;;;;5095949;28;20333;-72
2021/06/26 00:02:45;;;;;;;12.90;10.93;;;;;;;;;;5112503;28;20250;-71
2021/06/26 00:05:11;;;;;;;13.67;11.03;;;;;;;;;;5093357;28;20059;-71
2021/06/26 00:07:37;;;;;;;13.30;10.18;;;;;;;;;;5093668;28;20305;-72
2021/06/26 00:10:03;;;;;;;15.13;10.77;;;;;;;;;;5112024;28;20055;-72
2021/06/26 00:12:29;;;;;;;15.93;11.00;;;;;;;;;;5113870;28;20026;-71
2021/06/26 00:14:54;;;;;;;12.40;10.13;;;;;;;;;;5113937;28;20217;-71
2021/06/26 00:17:19;;;;;;;12.13;10.45;;;;;;;;;;5099475;28;20579;-71
2021/06/26 00:19:44;;;;;;;13.57;10.57;;;;;;;;;;5093278;28;20027;-71
2021/06/26 00:22:10;;;;;;;12.63;10.75;;;;;;;;;;5095842;28;20286;-72
2021/06/26 00:24:35;;;;;;;13.68;10.98;;;;;;;;;;5093873;28;20084;-71
2021/06/26 00:27:00;;;;;;;14.80;11.13;;;;;;;;;;5092589;28;20455;-71
2021/06/26 00:29:26;;;;;;;14.98;12.32;;;;;;;;;;5092353;28;20031;-72
2021/06/26 00:31:51;;;;;;;13.20;10.93;;;;;;;;;;5109061;28;20484;-71
2021/06/26 00:34:18;;;;;;;13.50;10.68;;;;;;;;;;5097819;28;20094;-72
2021/06/26 00:36:43;;;;;;;11.52;10.32;;;;;;;;;;5113756;28;20019;-72
2021/06/26 00:39:09;;;;;;;11.60;10.40;;;;;;;;;;5114645;28;20024;-72
2021/06/26 00:41:36;;;;;;;12.27;10.97;;;;;;;;;;5115831;28;20066;-72
2021/06/26 00:44:05;;;;;;;13.75;11.00;;;;;;;;;;5102305;28;20265;-72
2021/06/26 00:46:33;;;;;;;13.00;11.23;;;;;;;;;;5117152;28;20407;-72
2021/06/26 00:48:58;;;;;;;12.65;11.27;;;;;;;;;;5115020;28;20047;-72
2021/06/26 00:51:24;;;;;;;16.42;11.32;;;;;;;;;;5096615;28;20051;-71
2021/06/26 00:53:51;;;;;;;14.88;11.85;;;;;;;;;;5096915;28;20023;-72
2021/06/26 00:56:17;;;;;;;11.50;10.35;;;;;;;;;;5117207;28;20020;-71
2021/06/26 00:58:44;;;;;;;12.90;11.15;;;;;;;;;;5113024;28;20119;-72
2021/06/26 01:01:11;;;;;;;14.65;10.65;;;;;;;;;;5108349;28;20040;-72
2021/06/26 01:03:36;;;;;;;11.82;10.48;;;;;;;;;;5096704;28;20020;-72
2021/06/26 01:06:01;;;;;;;14.05;11.15;;;;;;;;;;5101961;28;20044;-72
2021/06/26 01:08:27;;;;;;;11.57;10.33;;;;;;;;;;5116117;28;20057;-71
2021/06/26 01:10:52;;;;;;;14.05;10.88;;;;;;;;;;5111629;28;20330;-71
2021/06/26 01:13:17;;;;;;;13.65;11.32;;;;;;;;;;5113538;28;20024;-72
2021/06/26 01:15:42;;;;;;;14.57;10.85;;;;;;;;;;5096304;28;20024;-72
2021/06/26 01:18:08;;;;;;;12.50;11.27;;;;;;;;;;5096170;28;20020;-72
2021/06/26 01:20:35;;;;;;;14.73;10.48;;;;;;;;;;5096610;28;20258;-72
2021/06/26 01:23:01;;;;;;;12.15;10.65;;;;;;;;;;5105810;28;20352;-72
2021/06/26 01:25:28;;;;;;;13.82;11.10;;;;;;;;;;5116602;28;20023;-72
2021/06/26 01:27:54;;;;;;;12.50;11.27;;;;;;;;;;5110034;28;20448;-72
2021/06/26 01:30:24;;;;;;;13.07;11.05;;;;;;;;;;5096391;28;20053;-72
2021/06/26 01:32:49;;;;;;;16.58;10.90;;;;;;;;;;5099747;28;20082;-72
2021/06/26 01:35:14;;;;;;;11.95;10.75;;;;;;;;;;5096069;28;20113;-71
2021/06/26 01:37:40;;;;;;;13.57;11.43;;;;;;;;;;5095787;28;20024;-72
2021/06/26 01:40:08;;;;;;;13.23;11.18;;;;;;;;;;5096259;28;20261;-72
2021/06/26 01:42:33;;;;;;;12.65;11.10;;;;;;;;;;5104903;28;20027;-71
2021/06/26 01:44:59;;;;;;;12.57;11.27;;;;;;;;;;5111089;28;20023;-72
2021/06/26 01:47:26;;;;;;;11.90;10.68;;;;;;;;;;5116219;28;20647;-71
2021/06/26 01:49:52;;;;;;;12.90;11.57;;;;;;;;;;5115253;28;20084;-72
2021/06/26 01:52:17;;;;;;;13.20;11.38;;;;;;;;;;5112101;28;20024;-72
2021/06/26 01:54:42;;;;;;;13.73;11.47;;;;;;;;;;5108860;28;20032;-72
2021/06/26 01:57:08;;;;;;;12.17;10.97;;;;;;;;;;5116090;28;20262;-72
2021/06/26 01:59:33;;;;;;;15.52;11.45;;;;;;;;;;5093926;28;20273;-72
2021/06/26 02:01:59;;;;;;;13.25;11.70;;;;;;;;;;5095976;28;20127;-72
2021/06/26 02:04:26;;;;;;;12.93;11.65;;;;;;;;;;5095849;28;20016;-72
2021/06/26 02:06:52;;;;;;;12.85;11.23;;;;;;;;;;5095792;28;20047;-72
2021/06/26 02:09:17;;;;;;;13.50;11.43;;;;;;;;;;5103228;28;20099;-72
2021/06/26 02:11:42;;;;;;;17.00;11.82;;;;;;;;;;5115213;28;20463;-71
2021/06/26 02:14:11;;;;;;;12.97;10.20;;;;;;;;;;5115917;28;20038;-72
2021/06/26 02:16:36;;;;;;;11.63;10.48;;;;;;;;;;5109453;28;20305;-72
2021/06/26 02:19:02;;;;;;;14.45;10.93;;;;;;;;;;5115781;28;20123;-72
2021/06/26 02:21:27;;;;;;;14.73;11.68;;;;;;;;;;5115796;28;20020;-73
2021/06/26 02:23:52;;;;;;;15.27;11.53;;;;;;;;;;5116015;28;20020;-72
2021/06/26 02:26:18;;;;;;;14.13;11.03;;;;;;;;;;5098917;28;20266;-72
2021/06/26 02:28:43;;;;;;;13.07;11.77;;;;;;;;;;5094301;28;20251;-72
2021/06/26 02:31:08;;;;;;;16.70;14.77;;;;;;;;;;5094290;28;20066;-72
2021/06/26 02:33:33;;;;;;;11.98;10.77;;;;;;;;;;5094071;28;20360;-72
2021/06/26 02:35:59;;;;;;;15.25;11.88;;;;;;;;;;5094967;28;20020;-71
2021/06/26 02:38:24;;;;;;;14.35;11.88;;;;;;;;;;5100082;28;20024;-72
2021/06/26 02:40:49;;;;;;;12.18;10.98;;;;;;;;;;5097071;28;20106;-72
2021/06/26 02:43:14;;;;;;;13.07;11.70;;;;;;;;;;5115201;28;20573;-72
2021/06/26 02:45:40;;;;;;;17.05;11.85;;;;;;;;;;5097370;28;20466;-72
2021/06/26 02:48:05;;;;;;;12.65;11.38;;;;;;;;;;5114866;28;20111;-72
2021/06/26 02:50:30;;;;;;;16.77;11.98;;;;;;;;;;5097172;28;20019;-73
2021/06/26 02:52:55;;;;;;;14.65;11.45;;;;;;;;;;5114490;28;20089;-71
2021/06/26 02:55:21;;;;;;;13.45;12.02;;;;;;;;;;5115374;28;20474;-72
2021/06/26 02:57:46;;;;;;;14.63;11.95;;;;;;;;;;5115011;28;20502;-71
2021/06/26 03:00:14;;;;;;;12.77;11.17;;;;;;;;;;5115295;28;20375;-71
2021/06/26 03:02:40;;;;;;;13.68;11.32;;;;;;;;;;5113588;28;20284;-72
2021/06/26 03:05:08;;;;;;;14.70;11.57;;;;;;;;;;5114436;28;20104;-71
2021/06/26 03:07:33;;;;;;;14.10;11.68;;;;;;;;;;5112107;28;20030;-72
2021/06/26 03:09:58;;;;;;;12.60;10.97;;;;;;;;;;5112631;28;20222;-71
2021/06/26 03:12:26;;;;;;;15.23;11.30;;;;;;;;;;5096636;28;20609;-72
2021/06/26 03:14:51;;;;;;;15.10;11.10;;;;;;;;;;5114095;28;20356;-72
2021/06/26 03:17:16;;;;;;;14.03;11.53;;;;;;;;;;5114454;28;20623;-72
2021/06/26 03:19:42;;;;;;;12.32;10.85;;;;;;;;;;5114788;28;20268;-72
2021/06/26 03:22:07;;;;;;;13.45;11.93;;;;;;;;;;5096287;28;20393;-74
2021/06/26 03:24:32;;;;;;;13.75;11.43;;;;;;;;;;5113943;28;20023;-75
2021/06/26 03:27:00;;;;;;;13.63;11.88;;;;;;;;;;5113760;28;20433;-74
2021/06/26 03:29:25;;;;;;;14.98;11.65;;;;;;;;;;5102895;27;20531;-75
2021/06/26 03:31:50;;;;;;;12.88;11.57;;;;;;;;;;5131075;27;20122;-71
2021/06/26 03:34:15;;;;;;;13.77;11.52;;;;;;;;;;5098737;28;20024;-75
2021/06/26 03:36:41;;;;;;;13.43;11.80;;;;;;;;;;5096945;28;20405;-76
2021/06/26 03:39:06;;;;;;;17.67;12.32;;;;;;;;;;5112670;27;20372;-75
2021/06/26 03:41:32;;;;;;;14.07;12.00;;;;;;;;;;5110906;28;20065;-75
2021/06/26 03:43:58;;;;;;;13.97;11.63;;;;;;;;;;5108349;28;20732;-75
2021/06/26 03:46:24;;;;;;;15.02;11.95;;;;;;;;;;5115419;27;20249;-75
2021/06/26 03:48:49;;;;;;;12.80;11.48;;;;;;;;;;5108110;27;20028;-76
2021/06/26 03:51:14;;;;;;;13.80;11.32;;;;;;;;;;5111960;27;20023;-76
2021/06/26 03:53:40;;;;;;;12.70;11.40;;;;;;;;;;5112870;28;20012;-78
2021/06/26 03:56:05;;;;;;;16.80;12.63;;;;;;;;;;5104643;28;20031;-72
2021/06/26 03:58:31;;;;;;;15.18;11.57;;;;;;;;;;5108628;28;20027;-71
2021/06/26 04:00:56;;;;;;;13.23;11.48;;;;;;;;;;5113265;27;20116;-72
2021/06/26 04:03:22;;;;;;;13.95;11.80;;;;;;;;;;5112267;28;20341;-72
2021/06/26 04:05:47;;;;;;;15.77;11.52;;;;;;;;;;5107947;28;20169;-72
2021/06/26 04:08:13;;;;;;;17.17;11.43;;;;;;;;;;5107545;28;20157;-75
2021/06/26 04:10:38;;;;;;;16.75;11.75;;;;;;;;;;5112299;28;20415;-76
2021/06/26 04:13:04;;;;;;;14.18;12.68;;;;;;;;;;5110898;27;20090;-77
2021/06/26 04:15:32;;;;;;;17.02;12.02;;;;;;;;;;5133340;27;20027;-72
2021/06/26 04:17:57;;;;;;;14.50;12.00;;;;;;;;;;5136925;27;20088;-72
2021/06/26 04:20:25;;;;;;;14.30;11.98;;;;;;;;;;5105654;27;20390;-71
2021/06/26 04:22:50;;;;;;;13.25;11.82;;;;;;;;;;5105377;27;20023;-71
2021/06/26 04:25:16;;;;;;;14.90;11.48;;;;;;;;;;5120780;27;20031;-72
2021/06/26 04:27:41;;;;;;;13.57;11.43;;;;;;;;;;5112634;27;20087;-72
2021/06/26 04:30:07;;;;;;;15.38;11.55;;;;;;;;;;5122725;27;20107;-72
2021/06/26 04:32:34;;;;;;;16.33;12.25;;;;;;;;;;5136942;27;20356;-72
2021/06/26 04:34:59;;;;;;;13.73;11.35;;;;;;;;;;5113865;27;20038;-71
2021/06/26 04:37:25;;;;;;;13.60;12.25;;;;;;;;;;5124550;27;20098;-69
2021/06/26 04:39:50;;;;;;;15.68;11.77;;;;;;;;;;5108572;28;20107;-69
2021/06/26 04:42:15;;;;;;;15.10;11.67;;;;;;;;;;5137611;27;20023;-67
2021/06/26 04:44:43;;;;;;;17.20;12.82;;;;;;;;;;5124975;27;20373;-68
2021/06/26 04:47:09;;;;;;;14.95;11.93;;;;;;;;;;5131345;27;20641;-71
2021/06/26 04:49:35;;;;;;;17.45;12.02;;;;;;;;;;5139461;27;20016;-69
2021/06/26 04:52:00;;;;;;;13.10;11.77;;;;;;;;;;5121877;27;20027;-70
2021/06/26 04:54:25;;;;;;;16.67;11.90;;;;;;;;;;5126416;27;20024;-68
2021/06/26 04:56:50;;;;;;;12.73;11.43;;;;;;;;;;5136647;27;20272;-69
2021/06/26 04:59:16;;;;;;;12.95;11.57;;;;;;;;;;5113150;27;20064;-68
2021/06/26 05:01:41;;;;;;;14.07;11.37;;;;;;;;;;5119585;28;20038;-68
2021/06/26 05:04:06;;;;;;;12.98;11.05;;;;;;;;;;5124648;27;20260;-68
2021/06/26 05:06:31;;;;;;;12.90;11.63;;;;;;;;;;5102049;28;20634;-70
2021/06/26 05:08:58;;;;;;;16.87;11.17;;;;;;;;;;5102373;28;20271;-69
2021/06/26 05:11:23;;;;;;;17.45;10.85;;;;;;;;;;5104246;28;20601;-69
2021/06/26 05:13:50;;;;;;;13.77;11.00;;;;;;;;;;5119765;28;20027;-69
2021/06/26 05:16:15;;;;;;;12.65;11.48;;;;;;;;;;5120160;28;20395;-69
2021/06/26 05:18:41;;;;;;;13.17;11.73;;;;;;;;;;5120141;28;20058;-70
2021/06/26 05:21:06;;;;;;;15.73;11.40;;;;;;;;;;5120282;28;20278;-70
2021/06/26 05:23:34;;;;;;;12.60;11.35;;;;;;;;;;5119450;28;20107;-70
2021/06/26 05:25:59;;;;;;;14.55;11.25;;;;;;;;;;5098384;28;20480;-70
2021/06/26 05:28:24;;;;;;;12.65;11.40;;;;;;;;;;5116873;27;20050;-70
2021/06/26 05:30:50;;;;;;;13.20;11.30;;;;;;;;;;5098574;28;20083;-71
2021/06/26 05:33:15;;;;;;;12.95;11.13;;;;;;;;;;5108792;28;20337;-71
2021/06/26 05:35:41;;;;;;;14.63;11.82;;;;;;;;;;5114977;28;20015;-70
2021/06/26 05:38:08;;;;;;;12.93;11.35;;;;;;;;;;5094997;28;20018;-70
2021/06/26 05:40:33;;;;;;;14.00;10.90;;;;;;;;;;5112796;28;20019;-70
2021/06/26 05:42:59;;;;;;;12.85;11.48;;;;;;;;;;5112658;28;20027;-70
2021/06/26 05:45:24;;;;;;;11.60;10.40;;;;;;;;;;5113908;28;20387;-70
2021/06/26 05:47:49;;;;;;;16.77;10.80;;;;;;;;;;5094550;28;20027;-68
2021/06/26 05:50:14;;;;;;;12.85;10.48;;;;;;;;;;5115106;28;20015;-68
2021/06/26 05:52:43;;;;;;;13.17;10.43;;;;;;;;;;5114060;28;20497;-68
2021/06/26 05:55:09;;;;;;;11.88;10.57;;;;;;;;;;5093170;28;20254;-68
2021/06/26 05:57:36;;;;;;;14.23;10.95;;;;;;;;;;5112006;28;20031;-68
2021/06/26 06:00:03;;;;;;;13.35;10.52;;;;;;;;;;5115294;28;20084;-71
2021/06/26 06:02:28;;;;;;;12.00;10.77;;;;;;;;;;5107968;28;20016;-70
2021/06/26 06:04:53;;;;;;;14.95;11.32;;;;;;;;;;5109969;28;20423;-69
2021/06/26 06:07:19;;;;;;;13.80;11.07;;;;;;;;;;5113025;28;20365;-71
2021/06/26 06:09:45;;;;;;;13.88;10.95;;;;;;;;;;5096987;28;20264;-70
2021/06/26 06:12:13;;;;;;;13.60;11.20;;;;;;;;;;5115277;28;20106;-71
2021/06/26 06:14:38;;;;;;;13.60;11.80;;;;;;;;;;5112900;28;20035;-70
2021/06/26 06:17:03;;;;;;;13.60;11.57;;;;;;;;;;5114768;28;20352;-71
2021/06/26 06:19:31;;;;;;;11.93;10.53;;;;;;;;;;5087530;28;20726;-70
2021/06/26 06:21:58;;;;;;;12.15;10.85;;;;;;;;;;5095550;28;20274;-70
2021/06/26 06:24:23;;;;;;;14.20;10.98;;;;;;;;;;5097962;28;20421;-70
2021/06/26 06:26:49;;;;;;;13.60;10.65;;;;;;;;;;5115731;28;20023;-70
2021/06/26 06:29:14;;;;;;;15.85;11.40;;;;;;;;;;5114650;28;20162;-69
2021/06/26 06:31:39;;;;;;;12.67;10.83;;;;;;;;;;5115807;28;20028;-70
2021/06/26 06:34:04;;;;;;;19.98;11.30;;;;;;;;;;5115918;28;20280;-71
2021/06/26 06:36:32;;;;;;;11.57;10.13;;;;;;;;;;5094757;28;20497;-70
2021/06/26 06:38:57;;;;;;;12.35;11.05;;;;;;;;;;5094608;28;20579;-70
2021/06/26 06:41:22;;;;;;;12.50;10.68;;;;;;;;;;5095172;28;20016;-70
2021/06/26 06:43:47;;;;;;;10.95;9.93;;;;;;;;;;5095017;28;20345;-70
2021/06/26 06:46:15;;;;;;;11.88;10.68;;;;;;;;;;5112737;28;20364;-72
2021/06/26 06:48:40;;;;;;;13.68;10.93;;;;;;;;;;5114881;28;20015;-71
2021/06/26 06:51:06;;;;;;;12.37;10.73;;;;;;;;;;5114882;28;20042;-69
2021/06/26 06:53:31;;;;;;;13.50;10.45;;;;;;;;;;5113895;28;20784;-68
2021/06/26 06:55:59;;;;;;;11.38;10.18;;;;;;;;;;5114667;28;20027;-69
2021/06/26 06:58:24;;;;;;;14.95;11.48;;;;;;;;;;5111027;28;20019;-69
2021/06/26 07:00:50;;;;;;;15.55;12.52;;;;;;;;;;5107746;28;20520;-69
2021/06/26 07:03:15;;;;;;;15.57;11.70;;;;;;;;;;5113625;28;20356;-68
2021/06/26 07:05:40;;;;;;;17.10;11.50;;;;;;;;;;5114568;28;20127;-70
2021/06/26 07:08:06;;;;;;;16.25;12.05;;;;;;;;;;5112098;28;20027;-69
2021/06/26 07:10:31;;;;;;;14.00;12.25;;;;;;;;;;5096972;28;20112;-69
2021/06/26 07:12:56;;;;;;;16.85;12.45;;;;;;;;;;5094313;28;20020;-70
2021/06/26 07:15:21;;;;;;;15.83;12.97;;;;;;;;;;5093308;28;20024;-69
2021/06/26 07:17:49;;;;;;;12.70;11.45;;;;;;;;;;5097675;28;20555;-70
2021/06/26 07:20:14;;;;;;;14.75;10.85;;;;;;;;;;5114507;28;20439;-70
2021/06/26 07:22:39;;;;;;;14.93;12.40;;;;;;;;;;5095929;28;20036;-70
2021/06/26 07:25:05;;;;;;;13.70;11.80;;;;;;;;;;5114001;28;20016;-70
2021/06/26 07:27:30;;;;;;;13.20;11.45;;;;;;;;;;5114561;28;20024;-71
2021/06/26 07:29:55;;;;;;;16.83;12.00;;;;;;;;;;5095798;28;20058;-70
2021/06/26 07:32:21;;;;;;;14.73;12.00;;;;;;;;;;5113626;28;20357;-70
2021/06/26 07:34:46;;;;;;;13.70;12.27;;;;;;;;;;5114273;28;20284;-70
2021/06/26 07:37:11;;;;;;;14.43;11.73;;;;;;;;;;5096623;28;20028;-70
2021/06/26 07:39:36;;;;;;;14.00;11.48;;;;;;;;;;5097309;28;20266;-81
2021/06/26 07:42:02;;;;;;;13.75;12.35;;;;;;;;;;5129191;27;20030;-77
2021/06/26 07:44:27;;;;;;;15.27;11.95;;;;;;;;;;5113493;28;20024;-82
2021/06/26 07:46:52;;;;;;;13.50;11.70;;;;;;;;;;5096404;28;20019;-83
2021/06/26 07:49:17;;;;;;;17.30;11.80;;;;;;;;;;5110550;28;20306;-81
2021/06/26 07:51:43;;;;;;;14.20;12.23;;;;;;;;;;5093313;28;20345;-83
2021/06/26 07:54:11;;;;;;;17.42;12.55;;;;;;;;;;5109518;28;20027;-73
2021/06/26 07:56:36;;;;;;;15.63;13.00;;;;;;;;;;5093772;28;20532;-73
2021/06/26 07:59:02;;;;;;;20.08;15.48;;;;;;;;;;5100428;28;20036;-73
2021/06/26 08:01:27;;;;;;;22.45;19.52;;;;;;;;;;5093669;28;20353;-73
2021/06/26 08:03:53;;;;;;;18.38;14.75;;;;;;;;;;5106286;28;20019;-74
2021/06/26 08:06:18;;;;;;;18.50;13.18;;;;;;;;;;5113958;28;20056;-74
2021/06/26 08:08:43;;;;;;;19.50;15.33;;;;;;;;;;5093364;28;20016;-74
2021/06/26 08:11:11;;;;;;;17.02;14.93;;;;;;;;;;5093538;28;20350;-73
2021/06/26 08:13:38;;;;;;;17.33;14.30;;;;;;;;;;5103652;28;20040;-73
2021/06/26 08:16:03;;;;;;;19.67;13.93;;;;;;;;;;5113600;28;20077;-73
2021/06/26 08:18:29;;;;;;;19.92;14.25;;;;;;;;;;5113522;28;20658;-73
2021/06/26 08:20:54;;;;;;;14.32;12.82;;;;;;;;;;5113868;28;20057;-73
2021/06/26 08:23:19;;;;;;;17.23;14.68;;;;;;;;;;5104763;28;20027;-74
2021/06/26 08:25:47;;;;;;;19.55;16.33;;;;;;;;;;5093490;28;20023;-73
2021/06/26 08:28:12;;;;;;;20.95;14.63;;;;;;;;;;5109031;28;20058;-73
2021/06/26 08:30:37;;;;;;;20.67;15.23;;;;;;;;;;5093536;28;20059;-71
2021/06/26 08:33:02;;;;;;;16.07;13.33;;;;;;;;;;5075608;28;20285;-72
2021/06/26 08:35:27;;;;;;;17.10;12.48;;;;;;;;;;5093647;28;20246;-72
2021/06/26 08:37:53;;;;;;;17.40;12.85;;;;;;;;;;5092913;28;20020;-71
2021/06/26 08:40:18;;;;;;;13.75;12.10;;;;;;;;;;5092892;28;20024;-71
2021/06/26 08:42:44;;;;;;;14.55;11.57;;;;;;;;;;5093159;28;20020;-71
2021/06/26 08:45:11;;;;;;;12.70;10.98;;;;;;;;;;5092918;28;20337;-71
2021/06/26 08:47:37;;;;;;;15.32;12.35;;;;;;;;;;5093270;28;20085;-71
2021/06/26 08:50:02;;;;;;;16.13;11.32;;;;;;;;;;5093383;28;20411;-71
2021/06/26 08:52:27;;;;;;;13.80;11.50;;;;;;;;;;5100745;28;20138;-71
2021/06/26 08:54:53;;;;;;;12.47;10.40;;;;;;;;;;5113545;28;20359;-71
2021/06/26 08:57:25;;;;;;;11.57;9.70;;;;;;;;;;5107363;28;20679;-71
2021/06/26 08:59:51;;;;;;;11.65;10.50;;;;;;;;;;5093705;28;20024;-71
2021/06/26 09:02:25;;;;;;;12.77;10.03;;;;;;;;;;5096585;28;20035;-73
2021/06/26 09:04:50;;;;;;;12.77;9.95;;;;;;;;;;5096771;28;20247;-71
2021/06/26 09:07:25;;;;;;;12.00;9.20;;;;;;;;;;5096632;28;20089;-72
2021/06/26 09:09:56;;;;;;;12.95;9.32;;;;;;;;;;5096706;28;20691;-71
2021/06/26 09:12:21;;;;;;;12.43;8.65;;;;;;;;;;5100028;28;20020;-74
2021/06/26 09:14:49;;;;;;;13.73;9.07;;;;;;;;;;5117310;28;20023;-72
2021/06/26 09:17:18;;;;;;;10.50;8.32;;;;;;;;;;5099316;28;20436;-72
2021/06/26 09:19:57;;;;;;;14.02;7.68;;;;;;;;;;5117369;28;20055;-72
2021/06/26 09:22:23;;;;;;;7.70;6.93;;;;;;;;;;5116381;28;20058;-72
2021/06/26 09:24:50;;;;;;;9.40;7.43;;;;;;;;;;5116997;28;20444;-72
2021/06/26 09:27:16;;;;;;;11.52;7.00;;;;;;;;;;5117057;28;20440;-72
2021/06/26 09:29:52;;;;;;;8.95;6.65;;;;;;;;;;5117159;28;20038;-72
2021/06/26 09:32:27;;;;;;;8.85;7.78;;;;;;;;;;5111739;28;20099;-72
2021/06/26 09:34:55;;;;;;;7.90;6.70;;;;;;;;;;5096182;28;20104;-72
2021/06/26 09:37:27;;;;;;;6.63;5.45;;;;;;;;;;5096191;28;20344;-72
2021/06/26 09:39:57;;;;;;;6.45;5.45;;;;;;;;;;5098636;28;20448;-72
2021/06/26 09:42:22;;;;;;;6.97;4.72;;;;;;;;;;5098671;28;20047;-72
2021/06/26 09:44:53;;;;;;;6.95;5.10;;;;;;;;;;5115631;28;20012;-72
2021/06/26 09:47:25;;;;;;;4.57;4.00;;;;;;;;;;5116518;28;20023;-72
2021/06/26 09:49:53;;;;;;;5.70;4.32;;;;;;;;;;5115523;28;20026;-72
2021/06/26 09:52:18;;;;;;;6.13;4.25;;;;;;;;;;5116296;28;20160;-72
2021/06/26 09:54:43;;;;;;;5.37;4.87;;;;;;;;;;5115239;28;20087;-72
2021/06/26 09:57:09;;;;;;;7.63;4.00;;;;;;;;;;5096428;28;20274;-72
2021/06/26 09:59:34;;;;;;;5.28;3.90;;;;;;;;;;5116018;28;20312;-72
2021/06/26 10:02:00;;;;;;;5.25;3.95;;;;;;;;;;5106852;28;20035;-71
2021/06/26 10:04:26;;;;;;;4.72;3.72;;;;;;;;;;5095837;28;20027;-72
2021/06/26 10:06:56;;;;;;;5.53;3.60;;;;;;;;;;5095066;28;20076;-72
2021/06/26 10:09:22;;;;;;;6.55;3.80;;;;;;;;;;5111310;28;20429;-72
2021/06/26 10:11:48;;;;;;;4.38;3.60;;;;;;;;;;5098200;28;20043;-72
2021/06/26 10:14:13;;;;;;;7.25;3.63;;;;;;;;;;5095484;28;20020;-71
2021/06/26 10:16:41;;;;;;;5.45;3.55;;;;;;;;;;5095720;28;20103;-72
2021/06/26 10:19:08;;;;;;;4.65;3.65;;;;;;;;;;5095728;28;20053;-72
2021/06/26 10:21:34;;;;;;;5.13;3.33;;;;;;;;;;5077134;28;20440;-71
2021/06/26 10:24:00;;;;;;;3.75;3.45;;;;;;;;;;5094187;28;20028;-71
2021/06/26 10:26:36;;;;;;;4.38;3.63;;;;;;;;;;5095357;28;20016;-72
2021/06/26 10:29:02;;;;;;;5.97;4.07;;;;;;;;;;5095522;28;20433;-72
2021/06/26 10:31:30;;;;;;;3.78;3.42;;;;;;;;;;5108432;28;20023;-72
2021/06/26 10:34:06;;;;;;;5.40;3.45;;;;;;;;;;5115729;28;20023;-72
2021/06/26 10:36:32;;;;;;;4.70;3.67;;;;;;;;;;5115709;28;20020;-72
2021/06/26 10:38:57;;;;;;;5.25;3.60;;;;;;;;;;5114781;28;20068;-72
2021/06/26 10:41:22;;;;;;;4.43;3.33;;;;;;;;;;5097295;28;20023;-72
2021/06/26 10:43:58;;;;;;;4.00;3.50;;;;;;;;;;5114894;28;20278;-72
2021/06/26 10:46:24;;;;;;;5.63;3.20;;;;;;;;;;5115404;28;20586;-72
2021/06/26 10:49:01;;;;;;;7.80;3.72;;;;;;;;;;5115619;28;20024;-72
2021/06/26 10:51:44;;;;;;;3.47;3.17;;;;;;;;;;5109072;28;20031;-72
2021/06/26 10:54:10;;;;;;;4.90;3.40;;;;;;;;;;5094984;28;20046;-72
2021/06/26 10:56:36;;;;;;;4.10;3.70;;;;;;;;;;5110941;28;20016;-73
2021/06/26 10:59:12;;;;;;;3.53;3.17;;;;;;;;;;5091145;28;20038;-72
2021/06/26 11:01:37;;;;;;;;;;;;;;;;;;5115676;28;20019;-72
2021/06/26 11:04:08;;;;;;;7.30;3.60;;;;;;;;;;5084166;28;19964;-72
2021/06/26 11:06:35;;;;;;;4.32;3.28;;;;;;;;;;5094980;28;20056;-72
2021/06/26 11:09:10;;;;;;;6.72;3.13;;;;;;;;;;5087944;28;20119;-72
2021/06/26 11:11:39;;;;;;;4.57;3.33;;;;;;;;;;5115187;28;20102;-72
2021/06/26 11:14:10;;;;;;;4.82;3.08;;;;;;;;;;5114724;28;20036;-72
2021/06/26 11:16:36;;;;;;;3.28;2.80;;;;;;;;;;5115245;28;20016;-72
2021/06/26 11:19:02;;;;;;;4.60;3.00;;;;;;;;;;5110341;28;20118;-73
2021/06/26 11:21:27;;;;;;;7.72;3.10;;;;;;;;;;5094184;28;20423;-72
2021/06/26 11:23:53;;;;;;;5.22;3.20;;;;;;;;;;5093574;28;20027;-72
2021/06/26 11:26:18;;;;;;;3.20;2.92;;;;;;;;;;5113338;28;20102;-73
2021/06/26 11:28:46;;;;;;;4.07;2.80;;;;;;;;;;5096597;28;20570;-73
2021/06/26 11:31:12;;;;;;;3.97;2.78;;;;;;;;;;5096727;28;20028;-74
2021/06/26 11:33:40;;;;;;;3.28;2.78;;;;;;;;;;5094215;28;20440;-74
2021/06/26 11:36:14;;;;;;;2.60;2.40;;;;;;;;;;5109711;28;20054;-74
2021/06/26 11:38:42;;;;;;;4.03;2.38;;;;;;;;;;5092264;28;20363;-73
2021/06/26 11:41:11;;;;;;;2.80;2.30;;;;;;;;;;5093746;28;20028;-74
2021/06/26 11:43:37;;;;;;;3.28;2.13;;;;;;;;;;5093702;28;20023;-74
2021/06/26 11:46:04;;;;;;;3.20;2.40;;;;;;;;;;5114356;28;20371;-72
2021/06/26 11:48:29;;;;;;;3.30;2.60;;;;;;;;;;5114459;28;20128;-73
2021/06/26 11:50:54;;;;;;;3.80;2.77;;;;;;;;;;5114547;28;20023;-73
2021/06/26 11:53:22;;;;;;;5.27;2.87;;;;;;;;;;5113599;28;20265;-73
2021/06/26 11:56:01;;;;;;;3.25;2.75;;;;;;;;;;5096198;28;20030;-74
2021/06/26 11:58:43;;;;;;;3.10;2.45;;;;;;;;;;5106613;28;20012;-74
2021/06/26 12:01:17;;;;;;;2.88;2.22;;;;;;;;;;5093905;28;20017;-74
2021/06/26 12:03:43;;;;;;;3.75;2.65;;;;;;;;;;5094064;28;20023;-73
2021/06/26 12:06:09;;;;;;;3.15;2.83;;;;;;;;;;5093417;28;20039;-72
2021/06/26 12:08:46;;;;;;;3.28;2.80;;;;;;;;;;5093961;28;20012;-73
2021/06/26 12:11:12;;;;;;;4.00;3.33;;;;;;;;;;5100606;28;20028;-72
2021/06/26 12:13:41;;;;;;;5.30;3.08;;;;;;;;;;5113765;28;20015;-73
2021/06/26 12:16:07;;;;;;;6.10;2.83;;;;;;;;;;5113818;28;20020;-73
2021/06/26 12:18:32;;;;;;;4.05;3.00;;;;;;;;;;5114221;28;20111;-73
2021/06/26 12:20:57;;;;;;;3.13;2.63;;;;;;;;;;5098236;28;20039;-73
2021/06/26 12:23:22;;;;;;;2.67;2.47;;;;;;;;;;5087071;28;20024;-73
2021/06/26 12:25:48;;;;;;;5.47;3.70;;;;;;;;;;5095960;28;20428;-73
2021/06/26 12:28:15;;;;;;;5.68;2.55;;;;;;;;;;5095406;28;20054;-73
2021/06/26 12:30:42;;;;;;;2.75;2.50;;;;;;;;;;5113765;28;20098;-73
2021/06/26 12:33:11;;;;;;;4.88;2.78;;;;;;;;;;5114069;28;20027;-73
2021/06/26 12:35:36;;;;;;;4.25;2.78;;;;;;;;;;5117741;28;20019;-73
2021/06/26 12:38:02;;;;;;;3.80;2.85;;;;;;;;;;5116564;28;20015;-72
2021/06/26 12:40:30;;;;;;;3.88;2.70;;;;;;;;;;5117994;28;20028;-73
2021/06/26 12:42:56;;;;;;;5.65;2.88;;;;;;;;;;5117628;28;20026;-72
2021/06/26 12:45:47;;;;;;;2.75;2.47;;;;;;;;;;5097026;28;20024;-73
2021/06/26 12:48:15;;;;;;;4.75;2.33;;;;;;;;;;5090101;28;20050;-73
2021/06/26 12:51:02;;;;;;;5.32;2.50;;;;;;;;;;5105897;28;20022;-72
2021/06/26 12:53:34;;;;;;;3.45;2.28;;;;;;;;;;5117275;28;20448;-73
2021/06/26 12:56:09;;;;;;;3.70;2.58;;;;;;;;;;5117580;28;20080;-73
2021/06/26 12:58:35;;;;;;;4.75;2.65;;;;;;;;;;5106312;28;21383;-72
2021/06/26 13:01:00;;;;;;;2.90;2.63;;;;;;;;;;5096628;28;21891;-72
2021/06/26 13:03:28;;;;;;;3.47;2.75;;;;;;;;;;5088941;28;20020;-72
2021/06/26 13:06:06;;;;;;;5.03;2.80;;;;;;;;;;5106449;28;20131;-72
2021/06/26 13:08:31;;;;;;;5.13;2.72;;;;;;;;;;5089042;28;20440;-72
2021/06/26 13:10:56;;;;;;;5.38;3.13;;;;;;;;;;5116776;28;20088;-72
2021/06/26 13:13:28;;;;;;;10.13;2.87;;;;;;;;;;5115666;28;20030;-72
2021/06/26 13:15:53;;;;;;;3.47;2.90;;;;;;;;;;5111232;28;20055;-72
2021/06/26 13:18:19;;;;;;;6.63;2.90;;;;;;;;;;5097014;28;20055;-72
2021/06/26 13:20:46;;;;;;;4.88;3.08;;;;;;;;;;5096519;28;20258;-72
2021/06/26 13:23:11;;;;;;;3.80;2.90;;;;;;;;;;5105343;28;20087;-72
2021/06/26 13:25:37;;;;;;;4.95;2.92;;;;;;;;;;5104726;28;20120;-71
2021/06/26 13:28:03;;;;;;;3.28;2.97;;;;;;;;;;5098433;28;20045;-72
2021/06/26 13:30:29;;;;;;;5.07;3.35;;;;;;;;;;5098913;28;20015;-73
2021/06/26 13:32:58;;;;;;;4.68;3.03;;;;;;;;;;5110579;28;20360;-71
2021/06/26 13:35:24;;;;;;;3.22;2.85;;;;;;;;;;5107777;28;20069;-71
2021/06/26 13:37:49;;;;;;;5.70;2.78;;;;;;;;;;5096374;28;20020;-75
2021/06/26 13:40:14;;;;;;;4.97;2.80;;;;;;;;;;5105835;28;20372;-71
2021/06/26 13:42:39;;;;;;;4.43;2.85;;;;;;;;;;5116164;28;20338;-71
2021/06/26 13:45:05;;;;;;;4.90;2.70;;;;;;;;;;5111714;28;20463;-72
2021/06/26 13:47:30;;;;;;;4.07;2.80;;;;;;;;;;5115942;28;20016;-72
2021/06/26 13:49:58;;;;;;;3.13;2.83;;;;;;;;;;5116131;28;20020;-73
2021/06/26 13:52:25;;;;;;;3.28;2.67;;;;;;;;;;5096162;28;20261;-73
2021/06/26 13:54:53;;;;;;;6.18;2.80;;;;;;;;;;5111725;28;20019;-73
2021/06/26 13:57:18;;;;;;;3.58;2.78;;;;;;;;;;5115208;28;20035;-72
2021/06/26 13:59:46;;;;;;;5.03;3.37;;;;;;;;;;5114117;28;20168;-73
2021/06/26 14:02:16;;;;;;;2.75;2.55;;;;;;;;;;5115519;28;20333;-72
2021/06/26 14:04:41;;;;;;;3.42;2.97;;;;;;;;;;5097100;28;20026;-72
2021/06/26 14:07:08;;;;;;;4.70;2.95;;;;;;;;;;5117593;27;20375;-71
2021/06/26 14:09:34;;;;;;;4.38;2.75;;;;;;;;;;5117035;27;20019;-70
2021/06/26 14:12:01;;;;;;;4.40;3.40;;;;;;;;;;5111760;27;20354;-76
2021/06/26 14:14:26;;;;;;;5.05;2.90;;;;;;;;;;5114374;27;20023;-70
2021/06/26 14:16:52;;;;;;;5.40;3.00;;;;;;;;;;5108331;28;20026;-76
2021/06/26 14:19:19;;;;;;;2.63;2.40;;;;;;;;;;5115234;28;20034;-74
2021/06/26 14:21:47;;;;;;;5.50;2.88;;;;;;;;;;5096387;28;20031;-73